createdAt,value
2022-07-29T00:15:20.985Z,20.88
2022-07-29T00:45:21.156Z,20.81
2022-07-29T01:15:20.996Z,20.81
2022-07-29T01:45:20.988Z,20.75
2022-07-29T02:15:21.006Z,20.19
2022-07-29T02:45:21.039Z,19.56
2022-07-29T03:15:21.002Z,19.19
2022-07-29T03:45:21.030Z,18.5
2022-07-29T04:15:21.033Z,18.63
2022-07-29T04:45:22.238Z,18.56
2022-07-29T05:15:21.031Z,18.5
2022-07-29T05:45:21.034Z,19.13
2022-07-29T06:15:21.066Z,19.38
2022-07-29T06:45:21.057Z,20.56
2022-07-29T07:15:21.061Z,22
2022-07-29T07:45:21.054Z,22.38
2022-07-29T08:15:21.066Z,23.25
2022-07-29T08:45:21.069Z,24.75
2022-07-29T09:15:21.070Z,26.25
2022-07-29T09:45:21.059Z,27.13
2022-07-29T10:15:21.060Z,27.25
2022-07-29T10:45:21.075Z,28.63
2022-07-29T11:15:21.083Z,29.19
2022-07-29T11:45:44.845Z,29.88
2022-07-29T12:15:21.085Z,28.69
2022-07-29T12:45:21.109Z,32.13
2022-07-29T13:15:21.102Z,33.44
2022-07-29T13:45:21.131Z,31.31
2022-07-29T14:15:21.124Z,28.19
2022-07-29T14:45:21.119Z,20.38
2022-07-29T15:15:21.125Z,19.75
2022-07-29T15:45:21.121Z,19.25
2022-07-29T16:15:21.153Z,18.06
2022-07-29T16:45:21.593Z,17.63
2022-07-29T17:15:21.163Z,18.25
2022-07-29T17:45:21.130Z,18
2022-07-29T18:15:21.150Z,18.25
2022-07-29T18:45:21.169Z,18.31
2022-07-29T19:15:21.182Z,17.94
2022-07-29T19:45:21.166Z,17.63
2022-07-29T20:15:21.159Z,17.69
2022-07-29T20:45:21.170Z,17.31
2022-07-29T21:15:21.185Z,17.63
2022-07-29T21:45:21.186Z,17.75
2022-07-29T22:15:21.252Z,17.63
2022-07-29T22:45:21.209Z,17.19
2022-07-29T23:15:21.193Z,17.19
2022-07-29T23:45:21.191Z,16.81
